createdAt,value
2022-09-24T00:04:20.209Z,13.43
2022-09-24T00:09:24.010Z,14.20
2022-09-24T00:14:27.176Z,13.10
2022-09-24T00:19:30.828Z,14.30
2022-09-24T00:24:52.607Z,13.23
2022-09-24T00:29:55.547Z,14.07
2022-09-24T00:34:58.525Z,13.83
2022-09-24T00:40:02.058Z,16.13
2022-09-24T00:45:05.865Z,15.07
2022-09-24T00:50:34.005Z,13.30
2022-09-24T00:55:39.348Z,13.33
2022-09-24T01:00:46.248Z,13.10
2022-09-24T01:05:50.188Z,12.80
2022-09-24T01:11:13.047Z,14.47
2022-09-24T01:16:42.068Z,14.60
2022-09-24T01:22:02.297Z,13.23
2022-09-24T01:27:26.955Z,13.83
2022-09-24T01:32:38.948Z,13.63
2022-09-24T01:37:45.777Z,13.80
2022-09-24T01:42:51.513Z,13.47
2022-09-24T01:47:54.699Z,13.87
2022-09-24T01:53:09.156Z,13.63
2022-09-24T01:58:19.877Z,14.00
2022-09-24T02:03:43.517Z,13.30
2022-09-24T02:08:48.879Z,14.50
2022-09-24T02:14:12.119Z,13.97
2022-09-24T02:19:23.003Z,14.27
2022-09-24T02:24:48.577Z,15.10
2022-09-24T02:29:51.907Z,14.23
2022-09-24T02:35:00.089Z,15.50
2022-09-24T02:40:06.403Z,14.40
2022-09-24T02:45:10.423Z,14.60
2022-09-24T02:50:13.657Z,15.27
2022-09-24T02:55:16.841Z,16.23
2022-09-24T03:00:21.628Z,15.63
2022-09-24T03:05:24.859Z,17.23
2022-09-24T03:10:27.979Z,16.23
2022-09-24T03:15:31.187Z,15.77
2022-09-24T03:20:34.155Z,15.90
2022-09-24T03:25:37.637Z,15.33
2022-09-24T03:30:59.063Z,15.27
2022-09-24T03:36:08.972Z,15.23
2022-09-24T03:41:13.807Z,15.43
2022-09-24T03:46:17.991Z,17.10
2022-09-24T03:51:21.116Z,17.30
2022-09-24T03:56:24.908Z,17.40
2022-09-24T04:01:29.701Z,17.37
2022-09-24T04:06:33.035Z,18.00
2022-09-24T04:11:37.318Z,17.53
2022-09-24T04:16:40.624Z,18.53
2022-09-24T04:21:44.258Z,16.40
2022-09-24T04:26:47.349Z,17.10
2022-09-24T04:31:50.491Z,18.03
2022-09-24T04:36:54.198Z,18.67
2022-09-24T04:41:57.269Z,17.67
2022-09-24T04:47:03.077Z,17.77
2022-09-24T04:52:06.298Z,17.83
2022-09-24T04:57:09.606Z,18.73
2022-09-24T05:02:13.095Z,18.00
2022-09-24T05:07:16.339Z,18.37
2022-09-24T05:12:21.174Z,17.93
2022-09-24T05:17:24.380Z,17.67
2022-09-24T05:22:28.563Z,18.97
2022-09-24T05:27:31.630Z,19.70
2022-09-24T05:32:37.047Z,19.23
2022-09-24T05:37:40.362Z,19.17
2022-09-24T05:42:43.467Z,18.70
2022-09-24T05:47:47.177Z,20.60
2022-09-24T05:52:50.469Z,19.53
2022-09-24T05:57:54.363Z,19.57
2022-09-24T06:03:16.241Z,19.30
2022-09-24T06:08:21.249Z,18.27
2022-09-24T06:13:24.346Z,17.63
2022-09-24T06:18:27.688Z,18.63
2022-09-24T06:23:31.666Z,19.13
2022-09-24T06:28:35.669Z,18.03
2022-09-24T06:33:39.226Z,19.20
2022-09-24T06:38:42.498Z,19.10
2022-09-24T06:43:46.079Z,19.13
2022-09-24T06:48:49.740Z,18.87
2022-09-24T06:53:53.342Z,18.73
2022-09-24T06:58:56.708Z,17.73
2022-09-24T07:03:59.940Z,17.83
2022-09-24T07:09:03.239Z,18.60
2022-09-24T07:14:06.386Z,17.77
2022-09-24T07:19:10.188Z,17.67
2022-09-24T07:24:16.460Z,17.00
2022-09-24T07:29:19.917Z,16.27
2022-09-24T07:34:22.978Z,15.50
2022-09-24T07:39:27.180Z,15.37
2022-09-24T07:44:34.038Z,15.20
2022-09-24T07:49:39.481Z,14.93
2022-09-24T07:54:42.985Z,15.23
2022-09-24T07:59:46.273Z,12.80
2022-09-24T08:04:49.533Z,12.60
2022-09-24T08:09:52.469Z,12.43
2022-09-24T08:14:55.535Z,12.33
2022-09-24T08:19:59.070Z,11.27
2022-09-24T08:25:03.889Z,10.87
2022-09-24T08:30:07.800Z,11.70
2022-09-24T08:35:11.428Z,10.30
2022-09-24T08:40:28.584Z,11.20
2022-09-24T08:46:00.719Z,10.70
2022-09-24T08:51:08.876Z,10.27
2022-09-24T08:56:12.858Z,10.40
2022-09-24T09:01:40.073Z,10.60
2022-09-24T09:07:22.187Z,10.07
2022-09-24T09:12:38.537Z,8.27
2022-09-24T09:18:00.705Z,8.03
2022-09-24T09:23:22.633Z,9.43
2022-09-24T09:28:30.107Z,8.63
2022-09-24T09:33:36.090Z,7.27
2022-09-24T09:38:43.291Z,7.33
2022-09-24T09:43:46.939Z,7.17
2022-09-24T09:48:56.877Z,6.57
2022-09-24T09:54:02.396Z,7.73
2022-09-24T09:59:11.667Z,6.80
2022-09-24T10:04:36.550Z,6.30
2022-09-24T10:09:42.424Z,5.97
2022-09-24T10:14:57.016Z,5.80
2022-09-24T10:20:02.879Z,5.27
2022-09-24T10:25:07.529Z,5.67
2022-09-24T10:30:34.439Z,5.97
2022-09-24T10:35:39.361Z,7.50
2022-09-24T10:40:42.879Z,5.63
2022-09-24T10:45:58.453Z,5.72
2022-09-24T10:51:29.187Z,5.03
2022-09-24T10:56:46.630Z,5.82
2022-09-24T11:02:03.522Z,4.20
2022-09-24T11:07:25.080Z,4.57
2022-09-24T11:12:54.303Z,4.47
2022-09-24T11:18:10.327Z,3.83
2022-09-24T11:23:30.165Z,2.92
2022-09-24T11:28:42.735Z,3.10
2022-09-24T11:34:13.258Z,1.98
2022-09-24T11:39:36.669Z,2.33
2022-09-24T11:44:58.703Z,2.45
2022-09-24T11:50:35.519Z,2.53
2022-09-24T11:55:58.500Z,2.75
2022-09-24T12:01:11.354Z,2.45
2022-09-24T12:06:19.761Z,2.20
2022-09-24T12:11:41.763Z,2.67
2022-09-24T12:16:48.398Z,2.25
2022-09-24T12:21:54.182Z,4.32
2022-09-24T12:27:01.621Z,3.78
2022-09-24T12:32:34.756Z,2.70
2022-09-24T12:37:41.787Z,2.50
2022-09-24T12:42:55.099Z,2.20
2022-09-24T12:48:01.544Z,2.45
2022-09-24T12:53:25.689Z,2.90
2022-09-24T12:58:44.636Z,2.60
2022-09-24T13:04:01.891Z,2.30
2022-09-24T13:09:41.329Z,2.70
2022-09-24T13:14:55.888Z,2.65
2022-09-24T13:20:03.734Z,2.53
2022-09-24T13:25:10.287Z,2.47
2022-09-24T13:30:19.068Z,2.60
2022-09-24T13:35:29.459Z,2.58
2022-09-24T13:40:39.389Z,2.38
2022-09-24T13:45:45.832Z,2.50
2022-09-24T13:50:53.294Z,2.35
2022-09-24T13:55:59.967Z,2.30
2022-09-24T14:01:11.871Z,2.22
2022-09-24T14:06:22.336Z,1.88
2022-09-24T14:11:26.831Z,2.17
2022-09-24T14:16:29.887Z,2.22
2022-09-24T14:21:47.506Z,2.10
2022-09-24T14:27:04.120Z,4.15
2022-09-24T14:32:08.250Z,2.10
2022-09-24T14:37:24.733Z,1.92
2022-09-24T14:42:39.598Z,2.50
2022-09-24T14:47:44.459Z,3.40
2022-09-24T14:52:57.648Z,4.38
2022-09-24T14:58:01.170Z,3.65
2022-09-24T15:03:21.664Z,7.57
2022-09-24T15:08:29.190Z,6.77
2022-09-24T15:13:38.431Z,9.03
2022-09-24T15:18:42.833Z,8.27
2022-09-24T15:23:46.158Z,10.80
2022-09-24T15:28:49.368Z,6.73
2022-09-24T15:33:53.866Z,5.70
2022-09-24T15:39:02.447Z,4.60
2022-09-24T15:44:06.954Z,5.53
2022-09-24T15:49:10.132Z,7.47
2022-09-24T15:54:13.198Z,4.80
2022-09-24T15:59:16.409Z,4.17
2022-09-24T16:04:22.278Z,4.00
2022-09-24T16:09:25.321Z,4.27
2022-09-24T16:14:28.769Z,4.90
2022-09-24T16:19:32.518Z,4.73
2022-09-24T16:24:36.181Z,6.00
2022-09-24T16:29:39.729Z,5.93
2022-09-24T16:34:43.252Z,6.00
2022-09-24T16:39:46.787Z,8.23
2022-09-24T16:44:50.380Z,8.77
2022-09-24T16:49:53.729Z,8.50
2022-09-24T16:54:56.849Z,10.30
2022-09-24T17:00:01.932Z,10.53
2022-09-24T17:05:05.736Z,10.60
2022-09-24T17:10:16.215Z,10.17
2022-09-24T17:15:21.202Z,11.23
2022-09-24T17:20:24.919Z,11.20
2022-09-24T17:25:28.548Z,11.37
2022-09-24T17:30:31.481Z,10.43
2022-09-24T17:35:34.449Z,10.10
2022-09-24T17:40:37.736Z,9.60
2022-09-24T17:45:40.684Z,9.90
2022-09-24T17:50:43.900Z,9.57
2022-09-24T17:55:51.814Z,10.17
2022-09-24T18:00:56.818Z,9.10
2022-09-24T18:06:01.556Z,10.20
2022-09-24T18:11:10.808Z,9.50
2022-09-24T18:16:17.416Z,9.73
2022-09-24T18:21:23.352Z,9.40
2022-09-24T18:26:35.718Z,9.67
2022-09-24T18:31:39.412Z,10.60
2022-09-24T18:36:44.803Z,12.90
2022-09-24T18:41:48.682Z,13.87
2022-09-24T18:46:51.719Z,9.80
2022-09-24T18:51:55.190Z,8.67
2022-09-24T18:56:58.223Z,8.47
2022-09-24T19:02:01.430Z,9.67
2022-09-24T19:07:06.219Z,9.57
2022-09-24T19:12:10.049Z,9.30
2022-09-24T19:17:15.109Z,10.27
2022-09-24T19:22:22.499Z,16.27
2022-09-24T19:27:25.585Z,13.87
2022-09-24T19:32:29.034Z,13.27
2022-09-24T19:37:34.926Z,15.23
2022-09-24T19:42:38.659Z,19.07
2022-09-24T19:47:42.078Z,18.77
2022-09-24T19:52:45.874Z,16.47
2022-09-24T19:57:49.390Z,15.13
2022-09-24T20:02:53.115Z,20.10
2022-09-24T20:07:56.402Z,15.07
2022-09-24T20:12:59.789Z,12.50
2022-09-24T20:18:03.448Z,13.37
2022-09-24T20:23:09.099Z,11.57
2022-09-24T20:28:17.093Z,12.13
2022-09-24T20:33:20.942Z,11.40
2022-09-24T20:38:24.035Z,10.70
2022-09-24T20:43:28.118Z,11.43
2022-09-24T20:48:32.850Z,12.03
2022-09-24T20:53:37.165Z,11.63
2022-09-24T20:58:40.951Z,11.67
2022-09-24T21:03:45.721Z,12.53
2022-09-24T21:08:49.954Z,12.53
2022-09-24T21:13:56.805Z,11.70
2022-09-24T21:19:05.289Z,12.60
2022-09-24T21:24:13.130Z,12.03
2022-09-24T21:29:19.259Z,12.80
2022-09-24T21:34:22.678Z,14.40
2022-09-24T21:39:29.080Z,14.03
2022-09-24T21:44:34.388Z,14.90
2022-09-24T21:49:37.779Z,14.17
2022-09-24T21:54:41.251Z,15.40
2022-09-24T22:00:04.502Z,14.43
2022-09-24T22:05:07.990Z,14.30
2022-09-24T22:10:11.024Z,14.53
2022-09-24T22:15:14.109Z,15.40
2022-09-24T22:20:17.107Z,15.07
2022-09-24T22:25:20.528Z,15.03
2022-09-24T22:30:24.290Z,14.10
2022-09-24T22:35:46.500Z,14.27
2022-09-24T22:40:50.197Z,14.50
2022-09-24T22:46:11.501Z,14.50
2022-09-24T22:51:15.467Z,16.13
2022-09-24T22:56:22.110Z,16.87
2022-09-24T23:01:39.705Z,17.83
2022-09-24T23:06:44.030Z,19.00
2022-09-24T23:11:47.260Z,18.20
2022-09-24T23:16:50.460Z,20.77
2022-09-24T23:21:53.505Z,19.53
2022-09-24T23:26:56.658Z,20.57
2022-09-24T23:32:00.128Z,19.67
2022-09-24T23:37:03.399Z,20.27
2022-09-24T23:42:07.983Z,20.80
2022-09-24T23:47:11.156Z,20.27
2022-09-24T23:52:14.577Z,19.90
2022-09-24T23:57:18.568Z,21.37
